Time;durP1;ratioP1;P1;durP2;ratioP2;P2;SDS_P1;SDS_P2;PMS_P1;PMS_P2;Temp;Humidity;BMP_temperature;BMP_pressure;BME280_temperature;BME280_humidity;BME280_pressure;Samples;Min_cycle;Max_cycle;Signal;HPM_P1;HPM_P2
2023/01/30 00:01:03;;;;;;;;;;;6.50;99.90;;;;;;4997996;28;19988;-77
2023/01/30 00:03:28;;;;;;;;;;;6.50;99.90;;;;;;5015639;28;19912;-77
2023/01/30 00:05:54;;;;;;;;;;;6.50;99.90;;;;;;5016223;28;19906;-77
2023/01/30 00:08:20;;;;;;;;;;;6.50;99.90;;;;;;4997846;28;19909;-77
2023/01/30 00:10:46;;;;;;;;;;;6.50;99.90;;;;;;4997736;28;19944;-76
2023/01/30 00:13:13;;;;;;;;;;;6.60;99.90;;;;;;4997903;28;19945;-76
2023/01/30 00:15:39;;;;;;;;;;;6.60;99.90;;;;;;5016043;28;19905;-76
2023/01/30 00:18:04;;;;;;;;;;;6.70;99.90;;;;;;5015189;28;20254;-77
2023/01/30 00:20:30;;;;;;;;;;;6.70;99.90;;;;;;5015385;28;19906;-78
2023/01/30 00:22:57;;;;;;;;;;;6.70;99.90;;;;;;5014767;28;19906;-78
2023/01/30 00:25:23;;;;;;;;;;;8.40;99.90;;;;;;5015216;28;19916;-78
2023/01/30 00:27:48;;;;;;;;;;;6.70;99.90;;;;;;4997566;28;19909;-77
2023/01/30 00:30:13;;;;;;;;;;;6.80;99.90;;;;;;5015088;28;19912;-77
2023/01/30 00:32:39;;;;;;;;;;;6.80;99.90;;;;;;4997616;28;19905;-77
2023/01/30 00:35:05;;;;;;;;;;;6.90;99.90;;;;;;5015535;28;19906;-77
2023/01/30 00:37:31;;;;;;;;;;;6.90;99.90;;;;;;5013839;28;19905;-77
2023/01/30 00:39:56;;;;;;;;;;;6.80;99.90;;;;;;5014916;28;20007;-77
2023/01/30 00:47:58;;;;;;;;;;;6.90;99.90;;;;;;5091892;28;20435;-78
2023/01/30 00:50:24;;;;;;;;;;;6.90;99.90;;;;;;5090308;28;19960;-78
2023/01/30 00:52:50;;;;;;;;;;;6.90;99.90;;;;;;5091490;28;19962;-78
2023/01/30 00:55:15;;;;;;;;;;;6.90;99.90;;;;;;5090249;28;19919;-78
2023/01/30 00:57:40;;;;;;;;;;;6.90;99.90;;;;;;5090222;28;20360;-78
2023/01/30 01:00:08;;;;;;;;;;;6.90;99.90;;;;;;5091318;28;19908;-77
2023/01/30 01:02:34;;;;;;;;;;;6.90;99.90;;;;;;5089990;28;19915;-77
2023/01/30 01:04:59;;;;;;;;;;;6.90;99.90;;;;;;5090924;28;19913;-77
2023/01/30 01:07:24;;;;;;;;;;;6.90;99.90;;;;;;5091333;28;19912;-77
2023/01/30 01:09:50;;;;;;;;;;;7.00;99.90;;;;;;5089895;28;20426;-77
2023/01/30 01:12:15;;;;;;;;;;;7.00;99.90;;;;;;5089968;28;19909;-77
2023/01/30 01:14:41;;;;;;;;;;;7.00;99.90;;;;;;5091408;28;20026;-77
2023/01/30 01:17:06;;;;;;;;;;;7.10;99.90;;;;;;5091197;28;19954;-77
2023/01/30 01:19:32;;;;;;;;;;;7.10;99.90;;;;;;5091417;28;19908;-77
2023/01/30 01:21:58;;;;;;;;;;;7.10;99.90;;;;;;5091136;28;20415;-77
2023/01/30 01:24:23;;;;;;;;;;;7.20;99.90;;;;;;5089763;28;19986;-77
2023/01/30 01:26:49;;;;;;;;;;;8.00;99.90;;;;;;5089744;28;19915;-77
2023/01/30 01:29:15;;;;;;;;;;;7.30;99.90;;;;;;5089742;28;19909;-77
2023/01/30 01:31:41;;;;;;;;;;;7.40;99.90;;;;;;5090014;28;19913;-78
2023/01/30 01:34:07;;;;;;;;;;;7.40;99.90;;;;;;5091140;28;19955;-77
2023/01/30 01:36:32;;;;;;;;;;;7.50;99.90;;;;;;5089689;28;19908;-77
2023/01/30 01:38:58;;;;;;;;;;;7.50;99.90;;;;;;5091003;28;19963;-78
2023/01/30 01:41:23;;;;;;;;;;;7.50;99.90;;;;;;5089275;28;20291;-77
2023/01/30 01:44:04;;;;;;;;;;;7.50;99.90;;;;;;5098077;28;19938;-78
2023/01/30 01:46:43;;;;;;;;;;;7.60;99.90;;;;;;5111334;28;19908;-77
2023/01/30 01:49:32;;;;;;;;;;;7.60;99.90;;;;;;5110835;28;19998;-78
2023/01/30 01:52:10;;;;;;;;;;;7.60;99.90;;;;;;5098506;28;19951;-77
2023/01/30 01:54:38;;;;;;;;;;;7.60;99.90;;;;;;5108411;28;19947;-77
2023/01/30 01:57:07;;;;;;;;;;;7.60;99.90;;;;;;5095871;28;19947;-76
2023/01/30 01:59:37;;;;;;;;;;;7.50;99.90;;;;;;5097622;28;20003;-78
2023/01/30 02:02:06;;;;;;;;;;;7.50;99.90;;;;;;5097187;28;20434;-78
2023/01/30 02:07:17;;;;;;;;;;;7.50;99.90;;;;;;5099406;28;19919;-78
2023/01/30 02:09:43;;;;;;;;;;;7.40;99.90;;;;;;5096419;28;19958;-77
2023/01/30 02:12:10;;;;;;;;;;;7.40;99.90;;;;;;5096845;28;19912;-79
2023/01/30 02:14:36;;;;;;;;;;;7.40;99.90;;;;;;5097205;28;20360;-78
2023/01/30 02:17:01;;;;;;;;;;;7.30;99.90;;;;;;5096925;28;19909;-79
2023/01/30 02:19:27;;;;;;;;;;;7.30;99.90;;;;;;5078775;22;19924;-78
2023/01/30 02:22:07;;;;;;;;;;;7.30;99.90;;;;;;5076583;28;19914;-78
2023/01/30 02:24:35;;;;;;;;;;;7.30;99.90;;;;;;5077776;28;19917;-78
2023/01/30 02:27:16;;;;;;;;;;;7.30;99.90;;;;;;5076448;28;20033;-78
2023/01/30 02:30:00;;;;;;;;;;;7.30;99.90;;;;;;5076177;28;20341;-78
2023/01/30 02:32:44;;;;;;;;;;;7.20;99.90;;;;;;5075759;28;20282;-78
2023/01/30 02:35:29;;;;;;;;;;;7.30;99.90;;;;;;5077221;28;19909;-80
2023/01/30 02:37:54;;;;;;;;;;;7.20;99.90;;;;;;5076756;28;19908;-79
2023/01/30 02:40:27;;;;;;;;;;;7.20;99.90;;;;;;5078607;28;19915;-78
2023/01/30 02:43:11;;;;;;;;;;;7.20;99.90;;;;;;5079244;28;19916;-78
2023/01/30 02:45:54;;;;;;;;;;;7.20;99.90;;;;;;5079048;28;19908;-76
2023/01/30 02:48:31;;;;;;;;;;;7.10;99.90;;;;;;5078895;28;19952;-79
2023/01/30 02:51:03;;;;;;;;;;;7.10;99.90;;;;;;5079547;28;20396;-76
2023/01/30 02:53:30;;;;;;;;;;;7.10;99.90;;;;;;5078910;28;19912;-79
2023/01/30 02:55:55;;;;;;;;;;;7.10;99.90;;;;;;5078263;28;19909;-78
2023/01/30 02:58:22;;;;;;;;;;;7.10;99.90;;;;;;5079842;28;19909;-79
2023/01/30 03:00:54;;;;;;;;;;;7.90;99.90;;;;;;5079344;28;19909;-78
2023/01/30 03:03:19;;;;;;;;;;;7.10;99.90;;;;;;5077703;28;19912;-79
2023/01/30 03:05:53;;;;;;;;;;;7.10;99.90;;;;;;5077133;28;19995;-77
2023/01/30 03:08:18;;;;;;;;;;;7.10;99.90;;;;;;5076753;28;19912;-78
2023/01/30 03:10:57;;;;;;;;;;;7.10;99.90;;;;;;5077566;28;19909;-78
2023/01/30 03:13:41;;;;;;;;;;;7.10;99.90;;;;;;5077587;28;20298;-77
2023/01/30 03:16:09;;;;;;;;;;;7.10;99.90;;;;;;5078737;28;19908;-77
2023/01/30 03:18:35;;;;;;;;;;;9.70;99.90;;;;;;5079160;28;20378;-79
2023/01/30 03:21:04;;;;;;;;;;;7.20;99.90;;;;;;5079871;28;19912;-80
2023/01/30 03:23:30;;;;;;;;;;;7.10;99.90;;;;;;5078908;28;19912;-80
2023/01/30 03:25:55;;;;;;;;;;;7.20;99.90;;;;;;5079337;28;19959;-80
2023/01/30 03:28:21;;;;;;;;;;;7.20;99.90;;;;;;5078979;28;19908;-78
2023/01/30 03:30:46;;;;;;;;;;;9.30;99.90;;;;;;5077005;28;19959;-79
2023/01/30 03:33:12;;;;;;;;;;;7.30;99.90;;;;;;5078402;28;19916;-79
2023/01/30 03:35:38;;;;;;;;;;;9.30;99.90;;;;;;5078204;28;19920;-79
2023/01/30 03:38:03;;;;;;;;;;;7.30;99.90;;;;;;5079311;28;19961;-79
2023/01/30 03:40:29;;;;;;;;;;;7.40;99.90;;;;;;5077950;28;20294;-79
2023/01/30 03:42:54;;;;;;;;;;;7.40;99.90;;;;;;5078915;28;19909;-78
2023/01/30 03:45:19;;;;;;;;;;;7.40;99.90;;;;;;5078713;28;19932;-79
2023/01/30 03:47:45;;;;;;;;;;;9.00;99.90;;;;;;5077892;28;19908;-79
2023/01/30 03:50:11;;;;;;;;;;;7.50;99.90;;;;;;5079816;28;19936;-80
2023/01/30 03:52:36;;;;;;;;;;;7.50;99.90;;;;;;5078574;28;19908;-78
2023/01/30 03:55:02;;;;;;;;;;;7.60;99.90;;;;;;5079077;28;19958;-78
2023/01/30 03:57:27;;;;;;;;;;;7.60;99.90;;;;;;5077946;28;19979;-79
2023/01/30 03:59:53;;;;;;;;;;;7.60;99.90;;;;;;5075477;28;19916;-79
2023/01/30 04:02:21;;;;;;;;;;;7.60;99.90;;;;;;5076718;28;19916;-80
2023/01/30 04:04:47;;;;;;;;;;;7.60;99.90;;;;;;5076655;28;19913;-79
2023/01/30 04:07:13;;;;;;;;;;;7.60;99.90;;;;;;5076783;28;19908;-79
2023/01/30 04:09:38;;;;;;;;;;;7.70;99.90;;;;;;5077732;28;19913;-80
2023/01/30 04:12:04;;;;;;;;;;;7.60;99.90;;;;;;5077900;28;19915;-78
2023/01/30 04:14:29;;;;;;;;;;;7.70;99.90;;;;;;5077791;28;19913;-79
2023/01/30 04:16:55;;;;;;;;;;;7.70;99.90;;;;;;5078554;28;19909;-77
2023/01/30 04:19:20;;;;;;;;;;;7.70;99.90;;;;;;5077200;28;19916;-79
2023/01/30 04:21:46;;;;;;;;;;;8.10;99.90;;;;;;5076556;28;19908;-79
2023/01/30 04:24:11;;;;;;;;;;;7.70;99.90;;;;;;5075358;28;20469;-80
2023/01/30 04:26:37;;;;;;;;;;;7.70;99.90;;;;;;5077627;28;19909;-78
2023/01/30 04:29:02;;;;;;;;;;;7.60;99.90;;;;;;5076561;28;19912;-79
2023/01/30 04:31:28;;;;;;;;;;;7.70;99.90;;;;;;5077377;28;19963;-79
2023/01/30 04:33:53;;;;;;;;;;;7.70;99.90;;;;;;5078062;28;20428;-79
2023/01/30 04:36:19;;;;;;;;;;;8.50;99.90;;;;;;5077694;28;19909;-79
2023/01/30 04:38:44;;;;;;;;;;;7.70;99.90;;;;;;5077803;28;19958;-81
2023/01/30 04:41:09;;;;;;;;;;;9.90;99.90;;;;;;5077727;28;20366;-79
2023/01/30 04:43:35;;;;;;;;;;;7.70;99.90;;;;;;5077180;28;19995;-79
2023/01/30 04:46:00;;;;;;;;;;;7.70;99.90;;;;;;5078612;28;19908;-78
2023/01/30 04:48:26;;;;;;;;;;;7.70;99.90;;;;;;5077935;28;19909;-79
2023/01/30 04:50:53;;;;;;;;;;;7.70;99.90;;;;;;5077525;28;19943;-78
2023/01/30 04:53:19;;;;;;;;;;;7.70;99.90;;;;;;5077567;28;19959;-78
2023/01/30 04:55:45;;;;;;;;;;;10.70;99.90;;;;;;5076884;28;19908;-78
2023/01/30 04:58:11;;;;;;;;;;;7.70;99.90;;;;;;5076828;28;19951;-80
2023/01/30 05:00:36;;;;;;;;;;;8.40;99.90;;;;;;5078510;28;20386;-79
2023/01/30 05:03:02;;;;;;;;;;;7.60;99.90;;;;;;5077415;28;19913;-78
2023/01/30 05:05:27;;;;;;;;;;;7.70;99.90;;;;;;5078234;28;20426;-79
2023/01/30 05:07:53;;;;;;;;;;;7.70;99.90;;;;;;5077055;28;19908;-78
2023/01/30 05:10:19;;;;;;;;;;;7.70;99.90;;;;;;5077032;28;19912;-78
2023/01/30 05:12:44;;;;;;;;;;;7.80;99.90;;;;;;5077664;28;19966;-79
2023/01/30 05:15:10;;;;;;;;;;;8.60;99.90;;;;;;5078620;28;19909;-79
2023/01/30 05:17:36;;;;;;;;;;;7.80;99.90;;;;;;5078227;28;20378;-80
2023/01/30 05:20:01;;;;;;;;;;;8.40;99.90;;;;;;5077167;28;19974;-79
2023/01/30 05:22:27;;;;;;;;;;;8.50;99.90;;;;;;5076663;28;20282;-80
2023/01/30 05:24:52;;;;;;;;;;;7.80;99.90;;;;;;5075244;28;19913;-78
2023/01/30 05:27:18;;;;;;;;;;;7.70;99.90;;;;;;5075765;28;20025;-79
2023/01/30 05:29:43;;;;;;;;;;;7.80;99.90;;;;;;5076936;28;19909;-79
2023/01/30 05:32:16;;;;;;;;;;;7.70;99.90;;;;;;5079202;28;19962;-79
2023/01/30 05:34:41;;;;;;;;;;;7.70;99.90;;;;;;5080160;28;19909;-79
2023/01/30 05:37:07;;;;;;;;;;;7.70;99.90;;;;;;5079105;28;19950;-79
2023/01/30 05:39:33;;;;;;;;;;;7.70;99.90;;;;;;5079438;28;19934;-79
2023/01/30 05:41:58;;;;;;;;;;;7.60;99.90;;;;;;5079731;28;19983;-79
2023/01/30 05:44:24;;;;;;;;;;;8.20;99.90;;;;;;5078628;28;19912;-78
2023/01/30 05:46:49;;;;;;;;;;;8.40;99.90;;;;;;5079356;28;19909;-79
2023/01/30 05:49:15;;;;;;;;;;;7.40;99.90;;;;;;5082419;28;20383;-79
2023/01/30 05:51:40;;;;;;;;;;;7.30;99.90;;;;;;5081197;28;19908;-80
2023/01/30 05:54:06;;;;;;;;;;;7.30;99.90;;;;;;5079588;28;19908;-79
2023/01/30 05:56:32;;;;;;;;;;;7.20;99.90;;;;;;5080555;28;19908;-78
2023/01/30 05:58:58;;;;;;;;;;;7.10;99.90;;;;;;5078214;28;19958;-79
2023/01/30 06:01:23;;;;;;;;;;;7.10;99.90;;;;;;5079788;28;20351;-79
2023/01/30 06:03:49;;;;;;;;;;;7.00;99.90;;;;;;5078282;28;19913;-79
2023/01/30 06:06:14;;;;;;;;;;;7.00;99.90;;;;;;5079898;28;19951;-79
2023/01/30 06:08:40;;;;;;;;;;;6.90;99.90;;;;;;5079884;28;19920;-78
2023/01/30 06:11:10;;;;;;;;;;;6.90;99.90;;;;;;5077146;28;20255;-78
2023/01/30 06:13:36;;;;;;;;;;;6.80;99.90;;;;;;5079158;28;20011;-79
2023/01/30 06:16:01;;;;;;;;;;;6.80;99.90;;;;;;5078354;28;19940;-79
2023/01/30 06:18:30;;;;;;;;;;;6.70;99.90;;;;;;5078022;28;19909;-79
2023/01/30 06:20:55;;;;;;;;;;;6.60;99.90;;;;;;5078789;28;19961;-80
2023/01/30 06:23:22;;;;;;;;;;;6.60;99.90;;;;;;5078639;28;19916;-78
2023/01/30 06:25:48;;;;;;;;;;;6.50;99.90;;;;;;5080321;28;19915;-78
2023/01/30 06:28:14;;;;;;;;;;;6.50;99.90;;;;;;5078644;28;20432;-78
2023/01/30 06:30:39;;;;;;;;;;;6.50;99.90;;;;;;5078140;28;20003;-79
2023/01/30 06:33:05;;;;;;;;;;;6.50;99.90;;;;;;5078120;28;19909;-78
2023/01/30 06:35:31;;;;;;;;;;;7.80;99.90;;;;;;5077536;28;19909;-78
2023/01/30 06:37:56;;;;;;;;;;;6.50;99.90;;;;;;5078298;28;20363;-79
2023/01/30 06:40:22;;;;;;;;;;;6.40;99.90;;;;;;5078815;28;19915;-78
2023/01/30 06:42:47;;;;;;;;;;;8.40;99.90;;;;;;5077212;28;19913;-78
2023/01/30 06:45:14;;;;;;;;;;;6.30;99.90;;;;;;5077482;28;19917;-78
2023/01/30 06:47:47;;;;;;;;;;;6.40;99.90;;;;;;5077920;28;20006;-77
2023/01/30 06:50:13;;;;;;;;;;;6.20;99.90;;;;;;5079468;28;20337;-81
2023/01/30 06:52:40;;;;;;;;;;;6.20;99.90;;;;;;5077445;28;19908;-78
2023/01/30 06:55:06;;;;;;;;;;;6.20;99.90;;;;;;5077750;28;20007;-78
2023/01/30 06:57:31;;;;;;;;;;;6.20;99.90;;;;;;5078846;28;19970;-78
2023/01/30 06:59:56;;;;;;;;;;;8.20;99.90;;;;;;5076429;28;19913;-80
2023/01/30 07:02:22;;;;;;;;;;;6.20;99.90;;;;;;5077095;28;19912;-80
2023/01/30 07:04:47;;;;;;;;;;;6.30;99.90;;;;;;5076608;28;20395;-78
2023/01/30 07:07:13;;;;;;;;;;;6.30;99.90;;;;;;5075328;28;19915;-79
2023/01/30 07:09:38;;;;;;;;;;;6.30;99.90;;;;;;5077013;28;19915;-78
2023/01/30 07:12:04;;;;;;;;;;;6.30;99.90;;;;;;5075401;28;19956;-77
2023/01/30 07:14:29;;;;;;;;;;;6.20;99.90;;;;;;5075688;28;20003;-78
2023/01/30 07:16:55;;;;;;;;;;;6.20;99.90;;;;;;5075341;28;19970;-78
2023/01/30 07:19:20;;;;;;;;;;;6.20;99.90;;;;;;5075446;28;19966;-77
2023/01/30 07:21:46;;;;;;;;;;;6.20;99.90;;;;;;5076424;28;20402;-78
2023/01/30 07:24:11;;;;;;;;;;;8.00;99.90;;;;;;5074861;28;19962;-77
2023/01/30 07:26:37;;;;;;;;;;;6.20;99.90;;;;;;5075038;28;19909;-78
2023/01/30 07:29:05;;;;;;;;;;;6.20;99.90;;;;;;5076668;28;19940;-78
2023/01/30 07:31:30;;;;;;;;;;;6.20;99.90;;;;;;5074884;28;19908;-77
2023/01/30 07:33:56;;;;;;;;;;;6.20;99.90;;;;;;5074877;28;19915;-77
2023/01/30 07:36:21;;;;;;;;;;;6.20;99.90;;;;;;5075165;28;19909;-78
2023/01/30 07:38:48;;;;;;;;;;;6.70;99.90;;;;;;5075662;28;19909;-80
2023/01/30 07:41:13;;;;;;;;;;;6.20;99.90;;;;;;5076536;28;19909;-78
2023/01/30 07:43:39;;;;;;;;;;;6.20;99.90;;;;;;5075770;28;19920;-77
2023/01/30 07:46:04;;;;;;;;;;;6.20;99.90;;;;;;5076320;28;20355;-78
2023/01/30 07:48:30;;;;;;;;;;;6.20;99.90;;;;;;5075873;28;19909;-78
2023/01/30 07:50:56;;;;;;;;;;;7.50;99.90;;;;;;5076561;28;19999;-78
2023/01/30 07:53:21;;;;;;;;;;;6.20;99.90;;;;;;5075947;28;19985;-78
2023/01/30 07:55:47;;;;;;;;;;;6.20;99.90;;;;;;5075008;28;20367;-79
2023/01/30 07:58:14;;;;;;;;;;;8.00;99.90;;;;;;5075209;28;19915;-78
2023/01/30 08:00:39;;;;;;;;;;;6.30;99.90;;;;;;5075109;28;19908;-78
2023/01/30 08:03:05;;;;;;;;;;;6.30;99.90;;;;;;5075324;28;19970;-78
2023/01/30 08:05:31;;;;;;;;;;;7.70;99.90;;;;;;5076800;28;19915;-77
2023/01/30 08:07:56;;;;;;;;;;;6.50;99.90;;;;;;5075227;28;19958;-77
2023/01/30 08:10:21;;;;;;;;;;;7.20;99.90;;;;;;5074102;28;19909;-77
2023/01/30 08:12:48;;;;;;;;;;;6.50;99.90;;;;;;5076099;28;19908;-77
2023/01/30 08:15:14;;;;;;;;;;;6.50;99.90;;;;;;5075472;28;19908;-78
2023/01/30 08:17:39;;;;;;;;;;;6.50;99.90;;;;;;5075178;28;20306;-78
2023/01/30 08:20:05;;;;;;;;;;;6.50;99.90;;;;;;5074030;28;19967;-77
2023/01/30 08:22:31;;;;;;;;;;;6.60;99.90;;;;;;5075556;28;19908;-78
2023/01/30 08:24:56;;;;;;;;;;;6.70;99.90;;;;;;5076751;28;19912;-77
2023/01/30 08:27:21;;;;;;;;;;;6.80;99.90;;;;;;5075101;28;19908;-77
2023/01/30 08:29:47;;;;;;;;;;;6.90;99.90;;;;;;5077097;28;19909;-78
2023/01/30 08:32:13;;;;;;;;;;;6.90;99.90;;;;;;5076460;28;20367;-77
2023/01/30 08:34:38;;;;;;;;;;;6.90;99.90;;;;;;5076445;28;20375;-77
2023/01/30 08:37:03;;;;;;;;;;;6.90;99.90;;;;;;5076514;28;19909;-77
2023/01/30 08:39:29;;;;;;;;;;;7.00;99.90;;;;;;5074914;28;20341;-78
2023/01/30 08:41:54;;;;;;;;;;;7.00;99.90;;;;;;5074657;28;19909;-77
2023/01/30 08:44:20;;;;;;;;;;;7.10;99.90;;;;;;5076061;28;19919;-78
2023/01/30 08:46:45;;;;;;;;;;;7.10;99.90;;;;;;5074526;28;19908;-77
2023/01/30 08:49:11;;;;;;;;;;;7.10;99.90;;;;;;5075272;28;19931;-78
2023/01/30 08:51:37;;;;;;;;;;;7.20;99.90;;;;;;5076629;28;19915;-77
2023/01/30 08:54:02;;;;;;;;;;;7.20;99.90;;;;;;5076482;28;20019;-78
2023/01/30 08:56:28;;;;;;;;;;;7.20;99.90;;;;;;5075531;28;19962;-78
2023/01/30 08:58:53;;;;;;;;;;;7.20;99.90;;;;;;5076619;28;19908;-77
2023/01/30 09:01:19;;;;;;;;;;;7.10;99.90;;;;;;5076634;28;19931;-78
2023/01/30 09:03:44;;;;;;;;;;;8.10;99.90;;;;;;5076759;28;19912;-77
2023/01/30 09:06:10;;;;;;;;;;;7.10;99.90;;;;;;5078360;28;19909;-78
2023/01/30 09:08:35;;;;;;;;;;;7.20;99.90;;;;;;5079533;28;20364;-78
2023/01/30 09:11:02;;;;;;;;;;;7.20;99.90;;;;;;5078435;28;20003;-77
2023/01/30 09:13:29;;;;;;;;;;;7.20;99.90;;;;;;5079030;28;20015;-78
2023/01/30 09:15:55;;;;;;;;;;;7.20;99.90;;;;;;5080068;28;19908;-78
2023/01/30 09:18:21;;;;;;;;;;;7.20;99.90;;;;;;5080412;28;19915;-79
2023/01/30 09:20:46;;;;;;;;;;;7.20;99.90;;;;;;5079746;28;19913;-78
2023/01/30 09:23:12;;;;;;;;;;;7.30;99.90;;;;;;5080250;28;19912;-78
2023/01/30 09:25:37;;;;;;;;;;;7.30;99.90;;;;;;5078127;28;19912;-77
2023/01/30 09:28:03;;;;;;;;;;;7.30;99.90;;;;;;5078514;28;19909;-77
2023/01/30 09:30:28;;;;;;;;;;;7.40;99.90;;;;;;5078119;28;19913;-78
2023/01/30 09:32:54;;;;;;;;;;;7.40;99.90;;;;;;5079541;28;20282;-78
2023/01/30 09:35:19;;;;;;;;;;;7.40;99.90;;;;;;5079683;28;20402;-78
2023/01/30 09:37:48;;;;;;;;;;;7.40;99.90;;;;;;5079552;28;19909;-78
2023/01/30 09:40:16;;;;;;;;;;;7.50;99.90;;;;;;5078902;28;19962;-78
2023/01/30 09:42:41;;;;;;;;;;;7.50;99.90;;;;;;5079685;28;20324;-78
2023/01/30 09:45:13;;;;;;;;;;;7.60;99.90;;;;;;5080288;28;19944;-78
2023/01/30 09:47:57;;;;;;;;;;;7.70;99.90;;;;;;5079283;28;19913;-78
2023/01/30 09:50:25;;;;;;;;;;;7.70;99.90;;;;;;5079268;28;19999;-78
2023/01/30 09:52:56;;;;;;;;;;;7.70;99.90;;;;;;5078434;28;19909;-77
2023/01/30 09:55:23;;;;;;;;;;;7.70;99.90;;;;;;5081188;28;20019;-79
2023/01/30 09:57:50;;;;;;;;;;;7.70;99.90;;;;;;5078367;28;19919;-77
2023/01/30 10:00:19;;;;;;;;;;;7.70;99.90;;;;;;5077173;28;19934;-78
2023/01/30 10:02:56;;;;;;;;;;;7.70;99.90;;;;;;5076644;28;19957;-77
2023/01/30 10:05:27;;;;;;;;;;;7.70;99.90;;;;;;5078157;28;19942;-77
2023/01/30 10:07:52;;;;;;;;;;;7.70;99.90;;;;;;5077540;28;19923;-77
2023/01/30 10:10:27;;;;;;;;;;;7.60;99.90;;;;;;5078760;28;19912;-78
2023/01/30 10:13:13;;;;;;;;;;;7.60;99.90;;;;;;5078976;28;20270;-78
2023/01/30 10:15:38;;;;;;;;;;;7.60;99.90;;;;;;5077408;28;20012;-79
2023/01/30 10:18:17;;;;;;;;;;;7.60;99.90;;;;;;5077674;28;19944;-78
2023/01/30 10:21:02;;;;;;;;;;;7.70;99.90;;;;;;5077225;28;19966;-77
2023/01/30 10:23:33;;;;;;;;;;;7.70;99.90;;;;;;5078099;28;19913;-78
2023/01/30 10:26:02;;;;;;;;;;;7.80;99.90;;;;;;5077273;28;20386;-78
2023/01/30 10:28:33;;;;;;;;;;;7.80;99.90;;;;;;5078785;28;19908;-78
2023/01/30 10:31:02;;;;;;;;;;;7.90;99.90;;;;;;5076751;28;19912;-78
2023/01/30 10:33:39;;;;;;;;;;;7.90;99.90;;;;;;5077232;28;19909;-78
2023/01/30 10:36:17;;;;;;;;;;;7.90;99.90;;;;;;5079874;28;19915;-78
2023/01/30 10:38:47;;;;;;;;;;;7.90;99.90;;;;;;5076590;28;19915;-77
2023/01/30 10:41:31;;;;;;;;;;;7.90;99.90;;;;;;5076733;28;19962;-77
2023/01/30 10:44:06;;;;;;;;;;;7.90;99.90;;;;;;5076021;28;19913;-78
2023/01/30 10:46:38;;;;;;;;;;;7.90;99.90;;;;;;5075303;28;19978;-78
2023/01/30 10:49:05;;;;;;;;;;;7.90;99.90;;;;;;5076131;28;19915;-78
2023/01/30 10:51:43;;;;;;;;;;;7.90;99.90;;;;;;5075072;28;19916;-77
2023/01/30 10:54:17;;;;;;;;;;;7.90;99.90;;;;;;5075416;28;19912;-77
2023/01/30 10:56:49;;;;;;;;;;;7.90;99.90;;;;;;5076008;28;19908;-78
2023/01/30 10:59:20;;;;;;;;;;;7.90;99.90;;;;;;5076349;28;19957;-77
2023/01/30 11:01:54;;;;;;;;;;;8.00;99.90;;;;;;5076656;28;19992;-78
2023/01/30 11:04:19;;;;;;;;;;;8.00;99.90;;;;;;5074390;28;19912;-77
2023/01/30 11:06:45;;;;;;;;;;;8.00;99.90;;;;;;5075032;28;19957;-78
2023/01/30 11:09:10;;;;;;;;;;;8.00;99.90;;;;;;5075490;28;19978;-77
2023/01/30 11:11:50;;;;;;;;;;;8.10;99.90;;;;;;5075431;28;19908;-77
2023/01/30 11:14:15;;;;;;;;;;;8.40;99.90;;;;;;5076114;28;19909;-77
2023/01/30 11:16:46;;;;;;;;;;;8.60;99.90;;;;;;5075165;28;19938;-77
2023/01/30 11:19:12;;;;;;;;;;;8.70;99.90;;;;;;5075137;28;19920;-76
2023/01/30 11:21:41;;;;;;;;;;;8.90;99.90;;;;;;5073568;28;19909;-76
2023/01/30 11:24:21;;;;;;;;;;;8.80;99.90;;;;;;5074644;28;20326;-76
2023/01/30 11:26:47;;;;;;;;;;;8.70;99.90;;;;;;5075135;28;19916;-77
2023/01/30 11:29:32;;;;;;;;;;;8.70;99.90;;;;;;5072890;28;19908;-78
2023/01/30 11:32:02;;;;;;;;;;;8.60;99.90;;;;;;5073437;28;20390;-77
2023/01/30 11:34:28;;;;;;;;;;;8.70;99.90;;;;;;5073332;28;19915;-77
2023/01/30 11:37:10;;;;;;;;;;;8.90;99.90;;;;;;5073470;28;19908;-77
2023/01/30 11:39:36;;;;;;;;;;;8.90;99.90;;;;;;5075230;28;19963;-77
2023/01/30 11:42:03;;;;;;;;;;;8.90;99.90;;;;;;5074433;28;19908;-77
2023/01/30 11:44:31;;;;;;;;;;;8.90;99.90;;;;;;5074327;28;20290;-77
2023/01/30 11:46:58;;;;;;;;;;;8.80;99.90;;;;;;5073360;28;19948;-77
2023/01/30 11:49:25;;;;;;;;;;;8.80;99.90;;;;;;5074828;28;19908;-77
2023/01/30 11:51:52;;;;;;;;;;;8.80;99.90;;;;;;5074465;28;19912;-77
2023/01/30 11:54:18;;;;;;;;;;;8.70;99.90;;;;;;5073402;28;19909;-77
2023/01/30 11:56:55;;;;;;;;;;;8.70;99.90;;;;;;5074657;28;20286;-77
2023/01/30 11:59:23;;;;;;;;;;;8.80;99.90;;;;;;5074447;28;19948;-76
2023/01/30 12:01:49;;;;;;;;;;;8.90;99.90;;;;;;5073072;28;19913;-76
2023/01/30 12:04:14;;;;;;;;;;;9.10;99.90;;;;;;5074396;28;19919;-76
2023/01/30 12:06:41;;;;;;;;;;;9.20;99.90;;;;;;5078052;28;20005;-77
2023/01/30 12:09:25;;;;;;;;;;;9.80;99.90;;;;;;5078018;28;19909;-80
2023/01/30 12:11:51;;;;;;;;;;;9.10;99.90;;;;;;5076535;28;19930;-78
2023/01/30 12:14:16;;;;;;;;;;;9.10;99.90;;;;;;5075149;28;19908;-78
2023/01/30 12:16:51;;;;;;;;;;;9.10;99.90;;;;;;5076321;28;20339;-78
2023/01/30 12:19:27;;;;;;;;;;;9.10;99.90;;;;;;5075708;28;20283;-78
2023/01/30 12:22:11;;;;;;;;;;;8.90;99.90;;;;;;5075151;28;19908;-78
2023/01/30 12:24:36;;;;;;;;;;;8.90;99.90;;;;;;5075053;28;19935;-77
2023/01/30 12:27:04;;;;;;;;;;;8.90;99.90;;;;;;5073365;28;19913;-79
2023/01/30 12:29:33;;;;;;;;;;;9.00;99.90;;;;;;5073162;28;19908;-77
2023/01/30 12:32:25;;;;;;;;;;;9.00;99.90;;;;;;5075051;28;19920;-77
2023/01/30 12:34:51;;;;;;;;;;;9.00;99.90;;;;;;5071796;28;19908;-78
2023/01/30 12:37:35;;;;;;;;;;;9.00;99.90;;;;;;5074842;28;19909;-77
2023/01/30 12:40:06;;;;;;;;;;;9.10;99.90;;;;;;5074317;28;19909;-77
2023/01/30 12:42:47;;;;;;;;;;;9.20;99.90;;;;;;5076262;28;19957;-78
2023/01/30 12:45:33;;;;;;;;;;;9.30;99.90;;;;;;5076132;28;20395;-78
2023/01/30 12:48:17;;;;;;;;;;;9.30;99.90;;;;;;5075340;28;19908;-78
2023/01/30 12:50:54;;;;;;;;;;;9.20;99.90;;;;;;5075116;28;20268;-78
2023/01/30 12:53:22;;;;;;;;;;;9.10;99.90;;;;;;5076537;28;19999;-79
2023/01/30 12:56:03;;;;;;;;;;;9.10;99.90;;;;;;5076253;28;19909;-78
2023/01/30 12:58:28;;;;;;;;;;;9.00;99.90;;;;;;5076498;28;19912;-79
2023/01/30 13:01:00;;;;;;;;;;;8.90;99.90;;;;;;5075931;28;20355;-78
2023/01/30 13:03:28;;;;;;;;;;;8.80;99.90;;;;;;5076093;28;19909;-78
2023/01/30 13:05:54;;;;;;;;;;;8.80;99.90;;;;;;5076168;28;19908;-79
2023/01/30 13:08:32;;;;;;;;;;;8.70;99.90;;;;;;5076540;28;20325;-79
2023/01/30 13:11:16;;;;;;;;;;;8.60;99.90;;;;;;5076781;28;20005;-79
2023/01/30 13:13:48;;;;;;;;;;;8.50;99.90;;;;;;5079353;28;19961;-78
2023/01/30 13:16:29;;;;;;;;;;;8.50;99.90;;;;;;5076541;28;20386;-78
2023/01/30 13:19:13;;;;;;;;;;;8.40;99.90;;;;;;5078368;28;19938;-79
2023/01/30 13:21:55;;;;;;;;;;;8.40;99.90;;;;;;5078062;28;19973;-79
2023/01/30 13:24:24;;;;;;;;;;;8.30;99.90;;;;;;5076447;28;19913;-77
2023/01/30 13:26:51;;;;;;;;;;;8.30;99.90;;;;;;5075482;28;20397;-78
2023/01/30 13:29:19;;;;;;;;;;;8.60;99.90;;;;;;5074937;28;19916;-74
2023/01/30 13:31:50;;;;;;;;;;;8.30;99.90;;;;;;5072476;28;20359;-74
2023/01/30 13:34:24;;;;;;;;;;;8.30;99.90;;;;;;5074053;28;19909;-75
2023/01/30 13:36:59;;;;;;;;;;;8.30;99.90;;;;;;5073390;28;19912;-76
2023/01/30 13:39:32;;;;;;;;;;;8.30;99.90;;;;;;5072394;28;19999;-75
2023/01/30 13:41:58;;;;;;;;;;;8.30;99.90;;;;;;5072209;28;19912;-75
2023/01/30 13:44:32;;;;;;;;;;;8.30;99.90;;;;;;5073450;28;20406;-76
2023/01/30 13:47:27;;;;;;;;;;;8.40;99.90;;;;;;5073335;28;19915;-76
2023/01/30 13:49:58;;;;;;;;;;;8.40;99.90;;;;;;5053876;28;20283;-76
2023/01/30 13:52:24;;;;;;;;;;;8.50;99.90;;;;;;5074680;28;19904;-76
2023/01/30 13:54:49;;;;;;;;;;;8.50;99.90;;;;;;5076979;28;19908;-76
2023/01/30 13:57:33;;;;;;;;;;;8.50;99.90;;;;;;5076927;28;19914;-76
2023/01/30 14:00:08;;;;;;;;;;;8.40;99.90;;;;;;5075538;28;20018;-76
2023/01/30 14:02:33;;;;;;;;;;;8.50;99.90;;;;;;5076090;28;20356;-76
2023/01/30 14:05:02;;;;;;;;;;;8.60;99.90;;;;;;5075458;28;19947;-75
2023/01/30 14:07:32;;;;;;;;;;;8.60;99.90;;;;;;5076484;28;20301;-75
2023/01/30 14:10:03;;;;;;;;;;;8.60;99.90;;;;;;5076538;28;20531;-76
2023/01/30 14:12:33;;;;;;;;;;;8.50;99.90;;;;;;5075479;28;19913;-76
2023/01/30 14:15:01;;;;;;;;;;;8.60;99.90;;;;;;5076742;28;19908;-76
2023/01/30 14:17:26;;;;;;;;;;;8.50;99.90;;;;;;5075314;28;19914;-76
2023/01/30 14:20:05;;;;;;;;;;;8.50;99.90;;;;;;5082211;22;20298;-74
2023/01/30 14:22:46;;;;;;;;;;;8.40;99.90;;;;;;5076228;28;19991;-73
2023/01/30 14:25:21;;;;;;;;;;;8.40;99.90;;;;;;5074973;28;20404;-74
2023/01/30 14:27:49;;;;;;;;;;;8.40;99.90;;;;;;5076828;28;19958;-74
2023/01/30 14:30:29;;;;;;;;;;;8.40;99.90;;;;;;5076647;28;20410;-73
2023/01/30 14:32:55;;;;;;;;;;;8.30;99.90;;;;;;5076116;28;19909;-73
2023/01/30 14:35:23;;;;;;;;;;;8.30;99.90;;;;;;5074966;28;19908;-74
2023/01/30 14:37:49;;;;;;;;;;;8.30;99.90;;;;;;5076081;28;20371;-73
2023/01/30 14:40:35;;;;;;;;;;;8.30;99.90;;;;;;5076142;28;19909;-76
2023/01/30 14:43:19;;;;;;;;;;;8.20;99.90;;;;;;5074418;28;19916;-74
2023/01/30 14:45:55;;;;;;;;;;;8.20;99.90;;;;;;5074797;28;19917;-75
2023/01/30 14:48:41;;;;;;;;;;;8.20;99.90;;;;;;5076608;28;20273;-75